Spacecraft Satellite overpass computed based on SGP4 code. Updated every day at 2:25 LT
Spacecraft : Terra    
         GMT                             Satellite      Satellite     Solar          Solar         Scat ang       
  year-mo-da hr:mn:sc    elevation     azimuth    elevation   azimuth    (bk=180)     
  2017-09-21 08:49:04     31.2             95.3          36.6           149.4         135.4
  2017-09-21 10:26:52     37.9            293.7          40.7           180.4          99.5
  2017-09-21 18:22:46     10.1             50.7         -17.5           293.5        -999.0
  2017-09-21 19:59:32     56.5             70.2         -30.3           316.2        -999.0
  2017-09-21 21:37:37     21.0            268.6         -38.2           344.6        -999.0
Spacecraft : Aqua    
         GMT                             Satellite      Satellite     Solar          Solar         Scat ang       
  year-mo-da hr:mn:sc    elevation     azimuth    elevation   azimuth    (bk=180)     
  2017-09-21 01:01:11     69.2            287.8         -28.9            46.1        -999.0
  2017-09-21 02:38:06     12.2            307.2         -15.9            68.4        -999.0
  2017-09-21 10:33:54     31.7             64.3          40.7           182.7          92.1
  2017-09-21 12:11:34     37.9            262.8          35.7           213.3         140.8
  2017-09-22 00:06:06     39.4             97.6         -34.8            31.5        -999.0
Spacecraft : CALIPSO    
         GMT                             Satellite      Satellite     Solar          Solar         Scat ang       
  year-mo-da hr:mn:sc    elevation     azimuth    elevation   azimuth    (bk=180)     
  2017-09-21 01:02:57     79.6            286.5         -28.7            46.6        -999.0
  2017-09-21 02:39:57     13.8            305.7         -15.6            68.8        -999.0
  2017-09-21 10:35:42     28.0             62.9          40.6           183.3          88.1
  2017-09-21 12:13:16     43.7            261.4          35.6           213.8         143.0
Spacecraft : CloudSat    
         GMT                             Satellite      Satellite     Solar          Solar         Scat ang       
  year-mo-da hr:mn:sc    elevation     azimuth    elevation   azimuth    (bk=180)     
  2017-09-21 01:04:03     80.5            286.4         -28.6            46.9        -999.0
  2017-09-21 02:41:04     13.9            305.6         -15.4            69.0        -999.0
  2017-09-21 10:36:49     27.7             62.8          40.6           183.7          87.6
  2017-09-21 12:14:23     44.3            261.3          35.5           214.1         143.3
Spacecraft : ISS    
         GMT                             Satellite      Satellite     Solar          Solar         Scat ang       
  year-mo-da hr:mn:sc    elevation     azimuth    elevation   azimuth    (bk=180)     
  2017-09-21 01:22:06     51.9            205.7         -26.4            51.3        -999.0
  2017-09-21 02:58:01     12.0            223.4         -12.8            72.5        -999.0
  2017-09-21 19:40:33     19.7            142.0         -28.1           311.3        -999.0
  2017-09-21 21:16:39     76.8            160.1         -37.1           338.1        -999.0
  2017-09-21 22:53:14     63.2              0.3         -38.9             9.0        -999.0